MOL Modern — V7VS6 — position and weather

sailwx.info

Track history (hours):
 
Tides and Currents Weather Stations Pressure Air Temp Water Temp Dewpoint Dewpoint Depression Visibility Wind Speed Wind Dir Waves Ship Positions

MOL Modern

Last reported at 2018-Jan-06 23:00 UTC. Time now 2018-Jan-22 06:38 UTC.
Position N 34°48' E 140°19'.
Warning: this ship's position is 15 days out of date.

Length 302 m; draft 13.3 m.

Type: Ship (hazmat cat A). MMSI: 538004203.

Date/timePositionNaut miles runAvg speedWind from/ knotsBaromVisibWave heightAir tempDewpointWater temp
2018-Jan-06 23:00N 34°48' E 140°19'918.6
2018-Jan-06 22:30N 34°49' E 140°08'1019.2
2018-Jan-06 22:00N 34°51' E 139°56'918.5
2018-Jan-06 21:30N 34°52' E 139°45'917.9
2018-Jan-06 21:01N 35°01' E 139°41'917.4
2018-Jan-06 20:30N 35°09' E 139°45'611.7
2018-Jan-06 20:00N 35°15' E 139°46'612.4
2018-Jan-06 19:30N 35°20' E 139°42'713.1
2018-Jan-06 19:00N 35°26' E 139°46'714.7
2018-Jan-06 18:30N 35°32' E 139°51'510.9
2018-Jan-06 18:01N 35°36' E 139°47'1 1.7
2018-Jan-06 17:31N 35°36' E 139°46'0 0.1
2018-Jan-06 17:00N 35°36' E 139°46'0 0.0
2018-Jan-06 16:30N 35°36' E 139°46'0 0.0
2018-Jan-06 16:00N 35°36' E 139°46'0 0.0
2018-Jan-06 15:30N 35°36' E 139°46'0 0.0
2018-Jan-06 15:00N 35°36' E 139°46'0 0.0
2018-Jan-06 14:30N 35°36' E 139°46'0 0.0
2018-Jan-06 14:00N 35°36' E 139°46'0 0.0
2018-Jan-06 13:30N 35°36' E 139°46'0 0.0
2018-Jan-06 13:00N 35°36' E 139°46'0 0.0
2018-Jan-06 12:30N 35°36' E 139°46'0 0.0
2018-Jan-06 12:00N 35°36' E 139°46'0 0.0
2018-Jan-06 11:30N 35°36' E 139°46'0 0.0
2018-Jan-06 11:00N 35°36' E 139°46'0 0.0
2018-Jan-06 10:30N 35°36' E 139°46'0 0.0
2018-Jan-06 10:00N 35°36' E 139°46'0 0.1
2018-Jan-06 09:30N 35°36' E 139°46'2 3.4
2018-Jan-06 09:00N 35°35' E 139°47'5 9.8
2018-Jan-06 08:30N 35°32' E 139°52'612.0
2018-Jan-06 08:00N 35°26' E 139°49'713.0
2018-Jan-06 07:30N 35°21' E 139°45'612.0
2018-Jan-06 07:00N 35°15' E 139°47'611.7
2018-Jan-06 06:30N 35°09' E 139°47'714.2
2018-Jan-06 06:00N 35°02' E 139°45'815.5
2018-Jan-06 05:30N 34°56' E 139°40'815.7
2018-Jan-06 05:00N 34°49' E 139°35'1017.0
2018-Jan-06 04:25N 34°40' E 139°30'819.8
2018-Jan-06 04:00N 34°37' E 139°20'1020.1
2018-Jan-06 03:31N 34°34' E 139°09'1019.8
2018-Jan-06 03:00N 34°27' E 138°60'1419.9
2018-Jan-06 02:20N 34°20' E 138°46'721.4
2018-Jan-06 02:00N 34°16' E 138°39'1021.1
2018-Jan-06 01:30N 34°11' E 138°28'1019.9
2018-Jan-06 01:00N 34°06' E 138°18'  
2018-Jan-02 09:06N 30°33' E 122°15'  
Track history (hours):
 
Tides and Currents Weather Stations Pressure Air Temp Water Temp Dewpoint Dewpoint Depression Visibility Wind Speed Wind Dir Waves Ship Positions

MOL Modern

Last reported at 2018-Jan-06 23:00 UTC. Time now 2018-Jan-22 06:38 UTC.
Position N 34°48' E 140°19'.
Warning: this ship's position is 15 days out of date.

Length 302 m; draft 13.3 m.

Type: Ship (hazmat cat A). MMSI: 538004203.

Date/timePositionNaut miles runAvg speedWind from/ knotsBaromVisibWave heightAir tempDewpointWater temp
2018-Jan-06 23:00N 34°48' E 140°19'918.6
2018-Jan-06 22:30N 34°49' E 140°08'1019.2
2018-Jan-06 22:00N 34°51' E 139°56'918.5
2018-Jan-06 21:30N 34°52' E 139°45'917.9
2018-Jan-06 21:01N 35°01' E 139°41'917.4
2018-Jan-06 20:30N 35°09' E 139°45'611.7
2018-Jan-06 20:00N 35°15' E 139°46'612.4
2018-Jan-06 19:30N 35°20' E 139°42'713.1
2018-Jan-06 19:00N 35°26' E 139°46'714.7
2018-Jan-06 18:30N 35°32' E 139°51'510.9
2018-Jan-06 18:01N 35°36' E 139°47'1 1.7
2018-Jan-06 17:31N 35°36' E 139°46'0 0.1
2018-Jan-06 17:00N 35°36' E 139°46'0 0.0
2018-Jan-06 16:30N 35°36' E 139°46'0 0.0
2018-Jan-06 16:00N 35°36' E 139°46'0 0.0
2018-Jan-06 15:30N 35°36' E 139°46'0 0.0
2018-Jan-06 15:00N 35°36' E 139°46'0 0.0
2018-Jan-06 14:30N 35°36' E 139°46'0 0.0
2018-Jan-06 14:00N 35°36' E 139°46'0 0.0
2018-Jan-06 13:30N 35°36' E 139°46'0 0.0
2018-Jan-06 13:00N 35°36' E 139°46'0 0.0
2018-Jan-06 12:30N 35°36' E 139°46'0 0.0
2018-Jan-06 12:00N 35°36' E 139°46'0 0.0
2018-Jan-06 11:30N 35°36' E 139°46'0 0.0
2018-Jan-06 11:00N 35°36' E 139°46'0 0.0
2018-Jan-06 10:30N 35°36' E 139°46'0 0.0
2018-Jan-06 10:00N 35°36' E 139°46'0 0.1
2018-Jan-06 09:30N 35°36' E 139°46'2 3.4
2018-Jan-06 09:00N 35°35' E 139°47'5 9.8
2018-Jan-06 08:30N 35°32' E 139°52'612.0
2018-Jan-06 08:00N 35°26' E 139°49'713.0
2018-Jan-06 07:30N 35°21' E 139°45'612.0
2018-Jan-06 07:00N 35°15' E 139°47'611.7
2018-Jan-06 06:30N 35°09' E 139°47'714.2
2018-Jan-06 06:00N 35°02' E 139°45'815.5
2018-Jan-06 05:30N 34°56' E 139°40'815.7
2018-Jan-06 05:00N 34°49' E 139°35'1017.0
2018-Jan-06 04:25N 34°40' E 139°30'819.8
2018-Jan-06 04:00N 34°37' E 139°20'1020.1
2018-Jan-06 03:31N 34°34' E 139°09'1019.8
2018-Jan-06 03:00N 34°27' E 138°60'1419.9
2018-Jan-06 02:20N 34°20' E 138°46'721.4
2018-Jan-06 02:00N 34°16' E 138°39'1021.1
2018-Jan-06 01:30N 34°11' E 138°28'1019.9
2018-Jan-06 01:00N 34°06' E 138°18'  
2018-Jan-02 09:06N 30°33' E 122°15'  

Dump ship's entire track history